Cornish, New Hampshire
Current Conditions -  °F | °C
As of 12:53 PM on Wednesday 28 Jan 2015 (Local Time) from KLEB Reporting Station
Clear Clear  
Wind Chill:   Ceiling: Unl
Heat Index: 19°   Visibility: 10mi
Dew Point:   Wind: 13mph
Humidity: 54%   Direction: 350°N
Pressure: 30.02"   Gusts: 20mph
Location:  43.5°N, 72.27°W
Report Text: KLEB 281753Z 35011G17KT 10SM CLR M07/M15 A3002 RMK AO2 SLP183 T10721150 11072 21128 51005
Loading
Personal Weather Stations






























Interactive Weather Map New forecast layout! Learn more

10-Day Weather Forecast

Advertisements
Track Severe Weather on mobile